Time;durP1;ratioP1;P1;durP2;ratioP2;P2;SDS_P1;SDS_P2;PMS_P1;PMS_P2;Temp;Humidity;BMP_temperature;BMP_pressure;BME280_temperature;BME280_humidity;BME280_pressure;Samples;Min_cycle;Max_cycle;Signal;HPM_P1;HPM_P2
2023/03/15 00:00:34;;;;;;;1.90;0.20;;;5.40;99.90;;;;;;5048135;28;20199;-47
2023/03/15 00:03:03;;;;;;;0.20;0.20;;;5.40;99.90;;;;;;5042302;28;20229;-47
2023/03/15 00:05:31;;;;;;;2.73;0.20;;;5.40;99.90;;;;;;5051106;28;20225;-47
2023/03/15 00:07:58;;;;;;;0.73;0.20;;;5.30;99.90;;;;;;5048057;28;20290;-46
2023/03/15 00:10:25;;;;;;;5.20;0.60;;;5.30;99.90;;;;;;5050195;28;21731;-46
2023/03/15 00:12:55;;;;;;;1.23;0.20;;;5.30;99.90;;;;;;5049037;28;20285;-47
2023/03/15 00:15:22;;;;;;;0.47;0.20;;;5.30;99.90;;;;;;5047794;28;20227;-47
2023/03/15 00:17:49;;;;;;;1.20;0.40;;;5.20;99.90;;;;;;5049163;28;20687;-46
2023/03/15 00:20:18;;;;;;;2.43;0.20;;;5.20;99.90;;;;;;5050274;28;20619;-47
2023/03/15 00:22:45;;;;;;;1.80;0.20;;;5.20;99.90;;;;;;5047160;28;20229;-46
2023/03/15 00:25:13;;;;;;;0.17;0.10;;;5.10;99.90;;;;;;5050499;28;20197;-47
2023/03/15 00:27:40;;;;;;;0.10;0.10;;;5.10;99.90;;;;;;5047269;28;20204;-49
2023/03/15 00:30:09;;;;;;;0.10;0.10;;;5.00;99.90;;;;;;5049638;28;20195;-47
2023/03/15 00:32:36;;;;;;;1.80;0.10;;;5.00;99.90;;;;;;5046305;28;20712;-46
2023/03/15 00:35:03;;;;;;;0.20;0.00;;;5.00;99.90;;;;;;5046940;28;20213;-47
2023/03/15 00:37:32;;;;;;;0.90;0.00;;;5.00;99.90;;;;;;5047392;28;20303;-47
2023/03/15 00:39:59;;;;;;;1.23;0.10;;;4.90;99.90;;;;;;5045744;28;20204;-48
2023/03/15 00:42:27;;;;;;;0.10;0.07;;;4.90;99.90;;;;;;5049203;28;20209;-46
2023/03/15 00:44:55;;;;;;;0.00;0.00;;;5.00;99.90;;;;;;5047546;28;20195;-45
2023/03/15 00:47:22;;;;;;;0.00;0.00;;;4.90;99.90;;;;;;5049234;28;20203;-46
2023/03/15 00:49:49;;;;;;;0.00;0.00;;;4.70;99.90;;;;;;5048176;28;20207;-47
2023/03/15 00:52:16;;;;;;;0.00;0.00;;;4.40;99.90;;;;;;5045546;28;20195;-46
2023/03/15 00:54:51;;;;;;;0.00;0.00;;;4.30;99.90;;;;;;5047343;28;20204;-46
2023/03/15 00:57:18;;;;;;;0.00;0.00;;;4.10;99.90;;;;;;5045205;28;20223;-45
2023/03/15 00:59:46;;;;;;;0.40;0.40;;;3.70;99.90;;;;;;5045314;28;20636;-45
2023/03/15 01:02:13;;;;;;;0.00;0.00;;;3.60;99.90;;;;;;5047343;28;20200;-44
2023/03/15 01:04:40;;;;;;;0.00;0.00;;;3.50;99.90;;;;;;5050603;28;20206;-47
2023/03/15 01:07:08;;;;;;;0.00;0.00;;;3.40;99.90;;;;;;5049019;28;20199;-46
2023/03/15 01:09:35;;;;;;;0.80;0.30;;;3.40;99.90;;;;;;5047452;28;20207;-46
2023/03/15 01:12:03;;;;;;;0.00;0.00;;;3.40;99.90;;;;;;5046960;28;20195;-47
2023/03/15 01:14:30;;;;;;;0.00;0.00;;;3.50;99.90;;;;;;5047436;28;20219;-46
2023/03/15 01:16:57;;;;;;;0.00;0.00;;;3.70;99.90;;;;;;5048870;28;20220;-47
2023/03/15 01:19:24;;;;;;;0.03;0.00;;;3.70;99.90;;;;;;5049199;28;20204;-47
2023/03/15 01:21:52;;;;;;;1.00;0.00;;;3.80;99.90;;;;;;5048523;28;20204;-47
2023/03/15 01:24:19;;;;;;;0.00;0.00;;;3.90;99.90;;;;;;5046342;28;20226;-46
2023/03/15 01:26:46;;;;;;;0.00;0.00;;;3.80;99.90;;;;;;5044692;28;20230;-46
2023/03/15 01:29:16;;;;;;;0.00;0.00;;;3.70;99.90;;;;;;5048788;28;20203;-48
2023/03/15 01:31:43;;;;;;;0.00;0.00;;;3.60;99.90;;;;;;5048699;28;20649;-46
2023/03/15 01:34:10;;;;;;;0.00;0.00;;;3.60;99.90;;;;;;5047899;28;20230;-48
2023/03/15 01:36:37;;;;;;;0.00;0.00;;;3.50;99.90;;;;;;5047797;28;20661;-47
2023/03/15 01:39:04;;;;;;;0.10;0.00;;;3.60;99.90;;;;;;5049660;28;20254;-47
2023/03/15 01:41:32;;;;;;;0.00;0.00;;;3.70;99.90;;;;;;5048139;28;20615;-46
2023/03/15 01:43:59;;;;;;;0.00;0.00;;;3.70;99.90;;;;;;5044911;28;20284;-47
2023/03/15 01:46:32;;;;;;;0.17;0.00;;;3.80;99.90;;;;;;5052276;28;20202;-47
2023/03/15 01:49:04;;;;;;;0.00;0.00;;;3.70;99.90;;;;;;5052146;28;20222;-47
2023/03/15 01:51:34;;;;;;;0.00;0.00;;;3.80;99.90;;;;;;5051294;28;20203;-46
2023/03/15 01:54:05;;;;;;;0.17;0.00;;;3.80;99.90;;;;;;5047075;28;20353;-46
2023/03/15 01:56:34;;;;;;;0.10;0.10;;;3.80;99.90;;;;;;5049545;28;20200;-45
2023/03/15 01:59:03;;;;;;;0.00;0.00;;;3.80;99.90;;;;;;5052558;28;20652;-47
2023/03/15 02:01:34;;;;;;;0.00;0.00;;;3.90;99.90;;;;;;5050792;28;20222;-45
2023/03/15 02:04:07;;;;;;;0.00;0.00;;;3.90;99.90;;;;;;5052590;28;20641;-48
2023/03/15 02:06:35;;;;;;;0.00;0.00;;;4.00;99.90;;;;;;5051076;28;20581;-48
2023/03/15 02:09:06;;;;;;;0.00;0.00;;;4.00;99.90;;;;;;5050618;28;20204;-46
2023/03/15 02:11:34;;;;;;;0.57;0.00;;;4.00;99.90;;;;;;5051284;28;20196;-47
2023/03/15 02:14:04;;;;;;;0.43;0.10;;;4.10;99.90;;;;;;5051419;28;20223;-47
2023/03/15 02:16:33;;;;;;;0.10;0.10;;;4.10;99.90;;;;;;5050353;28;20259;-47
2023/03/15 02:19:00;;;;;;;0.10;0.10;;;4.10;99.90;;;;;;5041656;28;20220;-46
2023/03/15 02:21:39;;;;;;;0.40;0.40;;;4.20;99.90;;;;;;5048490;28;20213;-48
2023/03/15 02:24:21;;;;;;;0.63;0.50;;;4.30;99.90;;;;;;5049458;28;20305;-47
2023/03/15 02:26:53;;;;;;;0.30;0.30;;;4.40;99.90;;;;;;5051676;28;20675;-45
2023/03/15 02:29:23;;;;;;;0.87;0.20;;;4.50;99.90;;;;;;5048376;28;20691;-47
2023/03/15 02:31:50;;;;;;;5.10;0.60;;;4.50;99.90;;;;;;5051041;28;20199;-47
2023/03/15 02:34:17;;;;;;;0.30;0.20;;;4.50;99.90;;;;;;5039563;28;20798;-48
2023/03/15 02:36:44;;;;;;;0.20;0.20;;;4.50;99.90;;;;;;5048583;28;20202;-46
2023/03/15 02:39:16;;;;;;;0.40;0.40;;;4.50;99.90;;;;;;5052473;28;20202;-47
2023/03/15 02:41:48;;;;;;;0.90;0.23;;;4.60;99.90;;;;;;5051133;28;20257;-47
2023/03/15 02:44:19;;;;;;;0.17;0.17;;;4.60;99.90;;;;;;5048460;28;20631;-47
2023/03/15 02:46:51;;;;;;;0.10;0.10;;;4.30;99.90;;;;;;5050670;28;20722;-47
2023/03/15 02:49:20;;;;;;;0.17;0.17;;;3.90;99.90;;;;;;5051566;28;20195;-46
2023/03/15 02:51:47;;;;;;;0.10;0.10;;;3.20;99.90;;;;;;5047999;28;20748;-47
2023/03/15 02:54:14;;;;;;;0.20;0.17;;;2.70;99.90;;;;;;5051091;28;20268;-46
2023/03/15 02:56:41;;;;;;;0.30;0.30;;;2.50;99.90;;;;;;5051125;28;20257;-45
2023/03/15 02:59:08;;;;;;;0.50;0.30;;;2.40;99.90;;;;;;5047686;28;20597;-45
2023/03/15 03:01:36;;;;;;;0.40;0.20;;;2.20;99.90;;;;;;5052198;28;20635;-46
2023/03/15 03:04:04;;;;;;;0.63;0.30;;;2.30;99.90;;;;;;5051175;28;20302;-44
2023/03/15 03:06:31;;;;;;;2.23;0.27;;;2.30;99.90;;;;;;5051865;28;20754;-48
2023/03/15 03:08:58;;;;;;;1.70;0.43;;;2.40;99.90;;;;;;5048289;28;20311;-45
2023/03/15 03:11:25;;;;;;;0.90;0.20;;;2.40;99.90;;;;;;5041390;28;20198;-46
2023/03/15 03:13:52;;;;;;;0.27;0.27;;;2.50;99.90;;;;;;5043591;28;20223;-47
2023/03/15 03:16:21;;;;;;;0.53;0.30;;;2.60;99.90;;;;;;5049782;28;20268;-46
2023/03/15 03:18:50;;;;;;;0.20;0.20;;;2.70;99.90;;;;;;5049338;28;20250;-48
2023/03/15 03:21:18;;;;;;;0.10;0.10;;;2.80;99.90;;;;;;5039195;28;20205;-46
2023/03/15 03:23:46;;;;;;;0.60;0.20;;;2.80;99.90;;;;;;5051971;28;20227;-47
2023/03/15 03:26:15;;;;;;;0.47;0.20;;;2.80;99.90;;;;;;5044653;28;20199;-46
2023/03/15 03:28:44;;;;;;;0.97;0.10;;;2.80;99.90;;;;;;5045872;28;20292;-46
2023/03/15 03:31:17;;;;;;;0.40;0.40;;;2.80;99.90;;;;;;5037789;28;20199;-46
2023/03/15 03:33:44;;;;;;;0.87;0.20;;;2.70;99.90;;;;;;5045457;28;20231;-46
2023/03/15 03:36:11;;;;;;;0.87;0.47;;;2.80;99.90;;;;;;5042372;28;20673;-45
2023/03/15 03:38:41;;;;;;;0.43;0.30;;;2.80;99.90;;;;;;5047345;28;20234;-49
2023/03/15 03:41:08;;;;;;;1.00;0.30;;;2.90;99.90;;;;;;5047326;28;20199;-48
2023/03/15 03:43:36;;;;;;;2.00;0.40;;;2.90;99.90;;;;;;5051261;28;20219;-46
2023/03/15 03:46:04;;;;;;;0.20;0.20;;;2.90;99.90;;;;;;5047712;28;20231;-47
2023/03/15 03:48:31;;;;;;;1.47;0.73;;;2.90;99.90;;;;;;5042600;28;20253;-47
2023/03/15 03:50:58;;;;;;;0.30;0.30;;;2.90;99.90;;;;;;5043233;28;20253;-46
2023/03/15 03:53:25;;;;;;;0.13;0.13;;;2.90;99.90;;;;;;5048304;28;20223;-47
2023/03/15 03:55:54;;;;;;;1.67;0.60;;;3.00;99.90;;;;;;5050139;28;20254;-48
2023/03/15 03:58:22;;;;;;;1.60;0.53;;;3.10;99.90;;;;;;5051267;28;20215;-48
2023/03/15 04:00:53;;;;;;;2.73;0.30;;;3.00;99.90;;;;;;5051080;28;20253;-47
2023/03/15 04:03:26;;;;;;;1.80;0.40;;;3.00;99.90;;;;;;5049176;28;20223;-48
2023/03/15 04:05:53;;;;;;;0.60;0.37;;;3.00;99.90;;;;;;5049200;28;20211;-47
2023/03/15 04:08:20;;;;;;;0.20;0.20;;;3.00;99.90;;;;;;5043353;28;20199;-47
2023/03/15 04:10:50;;;;;;;0.50;0.23;;;3.00;99.90;;;;;;5047831;28;20210;-47
2023/03/15 04:13:19;;;;;;;0.60;0.23;;;2.90;99.90;;;;;;5044296;28;20246;-47
2023/03/15 04:15:46;;;;;;;0.57;0.33;;;2.90;99.90;;;;;;5050956;28;20202;-48
2023/03/15 04:18:14;;;;;;;0.23;0.23;;;2.80;99.90;;;;;;5051119;28;20219;-49
2023/03/15 04:20:45;;;;;;;0.57;0.57;;;2.80;99.90;;;;;;5047890;28;20254;-46
2023/03/15 04:23:13;;;;;;;0.60;0.20;;;2.90;99.90;;;;;;5044540;28;20746;-48
2023/03/15 04:25:40;;;;;;;1.80;0.40;;;2.90;99.90;;;;;;5049306;28;20203;-46
2023/03/15 04:28:09;;;;;;;1.80;0.30;;;2.90;99.90;;;;;;5046297;28;20550;-46
2023/03/15 04:30:38;;;;;;;3.50;0.50;;;2.90;99.90;;;;;;5047083;28;20219;-47
2023/03/15 04:33:05;;;;;;;3.80;0.50;;;3.00;99.90;;;;;;5047766;28;20707;-48
2023/03/15 04:35:34;;;;;;;0.30;0.30;;;2.90;99.90;;;;;;5041511;28;20203;-45
2023/03/15 04:38:02;;;;;;;0.37;0.30;;;2.90;99.90;;;;;;5049548;28;20259;-49
2023/03/15 04:40:33;;;;;;;1.13;0.80;;;2.80;99.90;;;;;;5050659;28;20221;-47
2023/03/15 04:43:02;;;;;;;1.27;0.63;;;2.80;99.90;;;;;;5047208;28;20223;-48
2023/03/15 04:45:30;;;;;;;1.40;0.60;;;2.80;99.90;;;;;;5049571;28;20212;-46
2023/03/15 04:48:01;;;;;;;0.80;0.67;;;2.80;99.90;;;;;;5047500;28;20227;-45
2023/03/15 04:50:28;;;;;;;1.03;0.70;;;2.80;99.90;;;;;;5049858;28;20205;-46
2023/03/15 04:52:57;;;;;;;1.73;0.90;;;2.80;99.90;;;;;;5045443;28;20216;-48
2023/03/15 04:55:24;;;;;;;1.60;0.70;;;2.70;99.90;;;;;;5045900;28;20280;-47
2023/03/15 04:57:55;;;;;;;1.07;0.70;;;2.60;99.90;;;;;;5049133;28;20215;-47
2023/03/15 05:00:22;;;;;;;0.57;0.57;;;2.50;99.90;;;;;;5053954;28;20692;-47
2023/03/15 05:02:53;;;;;;;1.17;1.07;;;2.50;99.90;;;;;;5051136;28;20223;-45
2023/03/15 05:05:22;;;;;;;0.93;0.60;;;2.50;99.90;;;;;;5050434;28;20199;-49
2023/03/15 05:07:52;;;;;;;1.20;0.63;;;2.40;99.90;;;;;;5051094;28;20199;-46
2023/03/15 05:10:19;;;;;;;1.10;1.00;;;2.50;99.90;;;;;;5050827;28;20230;-47
2023/03/15 05:12:46;;;;;;;0.73;0.70;;;2.50;99.90;;;;;;5051290;28;20287;-47
2023/03/15 05:15:13;;;;;;;1.50;0.90;;;2.50;99.90;;;;;;5051558;28;20203;-46
2023/03/15 05:17:40;;;;;;;0.70;0.60;;;2.50;99.90;;;;;;5052415;28;20198;-46
2023/03/15 05:20:10;;;;;;;0.67;0.67;;;2.50;99.90;;;;;;5049547;28;20249;-47
2023/03/15 05:22:39;;;;;;;3.87;0.60;;;2.50;99.90;;;;;;5044963;28;20234;-45
2023/03/15 05:25:08;;;;;;;2.10;0.60;;;2.50;99.90;;;;;;5048650;28;20250;-47
2023/03/15 05:27:35;;;;;;;0.87;0.87;;;2.50;99.90;;;;;;5050591;28;20661;-46
2023/03/15 05:30:02;;;;;;;2.30;1.50;;;2.60;99.90;;;;;;5052067;28;20204;-46
2023/03/15 05:32:33;;;;;;;0.93;0.83;;;2.60;99.90;;;;;;5055459;28;20203;-47
2023/03/15 05:35:00;;;;;;;0.73;0.60;;;2.60;99.90;;;;;;5034877;28;20713;-47
2023/03/15 05:37:27;;;;;;;3.43;0.80;;;2.60;99.90;;;;;;5046866;28;20261;-46
2023/03/15 05:39:56;;;;;;;0.63;0.63;;;2.50;99.90;;;;;;5052602;28;20299;-46
2023/03/15 05:42:25;;;;;;;0.67;0.67;;;2.50;99.90;;;;;;5052775;28;20253;-48
2023/03/15 05:44:52;;;;;;;2.17;1.03;;;2.50;99.90;;;;;;5049425;28;20690;-45
2023/03/15 05:47:20;;;;;;;2.20;2.03;;;2.50;99.90;;;;;;5054455;28;20203;-46
2023/03/15 05:49:47;;;;;;;3.33;2.10;;;2.50;99.90;;;;;;5055539;28;21244;-47
2023/03/15 05:52:14;;;;;;;2.33;1.83;;;2.50;99.90;;;;;;5054378;28;20609;-46
2023/03/15 05:54:41;;;;;;;5.73;4.00;;;2.50;99.90;;;;;;5055001;28;20247;-48
2023/03/15 05:57:10;;;;;;;5.67;5.27;;;2.50;99.90;;;;;;5049666;28;20204;-48
2023/03/15 05:59:38;;;;;;;5.27;4.00;;;2.50;99.90;;;;;;5049966;28;20636;-45
2023/03/15 06:02:05;;;;;;;6.20;3.30;;;2.50;99.90;;;;;;5051643;28;20245;-45
2023/03/15 06:04:32;;;;;;;3.40;2.33;;;2.50;99.90;;;;;;5046156;28;20761;-47
2023/03/15 06:07:01;;;;;;;1.63;1.53;;;2.50;99.90;;;;;;5051368;28;20203;-46
2023/03/15 06:09:28;;;;;;;4.30;1.53;;;2.40;99.90;;;;;;5054382;28;20821;-46
2023/03/15 06:11:57;;;;;;;2.73;1.63;;;2.40;99.90;;;;;;5054153;28;20203;-48
2023/03/15 06:14:26;;;;;;;2.17;1.37;;;2.40;99.90;;;;;;5053394;28;20675;-46
2023/03/15 06:16:53;;;;;;;3.27;1.70;;;2.40;99.90;;;;;;5045362;28;20211;-46
2023/03/15 06:19:21;;;;;;;1.93;1.80;;;2.40;99.90;;;;;;5053992;28;20309;-48
2023/03/15 06:21:48;;;;;;;1.20;1.03;;;2.40;99.90;;;;;;5053607;28;20200;-47
2023/03/15 06:24:15;;;;;;;3.17;1.73;;;2.40;99.90;;;;;;5045051;28;20277;-47
2023/03/15 06:26:44;;;;;;;3.57;1.70;;;2.40;99.90;;;;;;5053407;28;20195;-47
2023/03/15 06:29:11;;;;;;;3.63;2.40;;;2.40;99.90;;;;;;5051992;28;20283;-46
2023/03/15 06:31:42;;;;;;;2.17;2.07;;;2.80;99.90;;;;;;5047407;28;20234;-47
2023/03/15 06:34:11;;;;;;;2.97;1.57;;;3.70;99.90;;;;;;5053500;28;20255;-46
2023/03/15 06:36:38;;;;;;;1.97;1.77;;;4.70;99.90;;;;;;5052964;28;20207;-45
2023/03/15 06:39:05;;;;;;;1.80;1.70;;;5.70;99.90;;;;;;5046696;28;20274;-46
2023/03/15 06:41:32;;;;;;;4.90;1.80;;;6.50;99.90;;;;;;5042334;28;20197;-46
2023/03/15 06:43:59;;;;;;;2.10;1.90;;;7.10;99.90;;;;;;5049659;28;20812;-45
2023/03/15 06:46:26;;;;;;;2.20;0.90;;;7.80;99.90;;;;;;5045767;28;20247;-47
2023/03/15 06:48:55;;;;;;;2.17;1.07;;;8.00;99.90;;;;;;5048603;28;20246;-46
2023/03/15 06:51:23;;;;;;;1.10;1.10;;;8.30;99.90;;;;;;5053163;28;20617;-47
2023/03/15 06:53:51;;;;;;;1.40;1.30;;;8.60;99.90;;;;;;5044070;28;20610;-47
2023/03/15 06:56:18;;;;;;;3.73;1.00;;;8.70;99.90;;;;;;5052111;28;20199;-47
2023/03/15 06:58:45;;;;;;;3.30;1.27;;;8.70;99.90;;;;;;5051327;28;20638;-47
2023/03/15 07:01:13;;;;;;;1.77;1.00;;;8.60;99.90;;;;;;5046193;28;20226;-48
2023/03/15 07:03:40;;;;;;;1.70;1.60;;;8.60;99.90;;;;;;5051742;28;20229;-47
2023/03/15 07:06:08;;;;;;;2.37;1.20;;;8.50;99.90;;;;;;5050062;28;20246;-47
2023/03/15 07:08:35;;;;;;;2.37;0.97;;;8.20;99.90;;;;;;5050699;28;20194;-47
2023/03/15 07:11:03;;;;;;;1.93;1.10;;;8.30;99.90;;;;;;5048819;28;20207;-46
2023/03/15 07:13:30;;;;;;;4.40;1.37;;;8.60;99.90;;;;;;5047655;28;20568;-48
2023/03/15 07:15:57;;;;;;;2.10;1.90;;;8.90;99.90;;;;;;5050391;28;20199;-48
2023/03/15 07:18:24;;;;;;;4.53;2.27;;;8.80;99.90;;;;;;5052052;28;20624;-46
2023/03/15 07:20:57;;;;;;;3.47;1.40;;;9.00;99.90;;;;;;5052945;28;20253;-47
2023/03/15 07:23:25;;;;;;;2.77;1.63;;;8.90;99.90;;;;;;5050719;28;20302;-47
2023/03/15 07:25:54;;;;;;;4.30;2.97;;;9.00;99.90;;;;;;5052798;28;20269;-47
2023/03/15 07:28:21;;;;;;;2.83;2.60;;;8.90;99.90;;;;;;5050842;28;20204;-47
2023/03/15 07:30:55;;;;;;;3.53;2.97;;;8.50;99.90;;;;;;5043694;28;20258;-47
2023/03/15 07:33:23;;;;;;;3.40;2.43;;;8.30;99.90;;;;;;5052184;28;20237;-48
2023/03/15 07:35:50;;;;;;;2.67;2.47;;;7.70;99.90;;;;;;5048253;28;20243;-48
2023/03/15 07:38:18;;;;;;;5.33;1.93;;;7.70;99.90;;;;;;5042023;28;20209;-48
2023/03/15 07:40:46;;;;;;;6.97;2.80;;;7.90;99.90;;;;;;5049135;28;20255;-47
2023/03/15 07:43:13;;;;;;;2.33;2.13;;;7.80;99.90;;;;;;5050610;28;20699;-47
2023/03/15 07:45:40;;;;;;;3.50;2.00;;;7.90;99.90;;;;;;5051700;28;20217;-46
2023/03/15 07:48:07;;;;;;;1.80;1.20;;;8.10;99.90;;;;;;5051154;28;20202;-47
2023/03/15 07:50:35;;;;;;;4.37;1.90;;;8.20;99.90;;;;;;5050382;28;20206;-47
2023/03/15 07:53:03;;;;;;;0.93;0.93;;;8.80;99.90;;;;;;5043421;28;20219;-46
2023/03/15 07:55:31;;;;;;;2.70;1.43;;;9.40;99.90;;;;;;5045885;28;20202;-46
2023/03/15 07:57:59;;;;;;;4.10;0.97;;;9.70;99.90;;;;;;5047783;28;20666;-45
2023/03/15 08:00:27;;;;;;;1.43;0.70;;;10.20;99.90;;;;;;5059511;28;20215;-49
2023/03/15 08:02:54;;;;;;;4.90;1.50;;;10.60;99.90;;;;;;5052692;28;20278;-48
2023/03/15 08:05:21;;;;;;;2.60;0.97;;;11.00;99.90;;;;;;5047429;28;20203;-47
2023/03/15 08:07:49;;;;;;;2.30;0.80;;;11.40;99.90;;;;;;5052519;28;20203;-48
2023/03/15 08:10:17;;;;;;;1.87;0.70;;;11.20;99.90;;;;;;5052487;28;20192;-48
2023/03/15 08:12:44;;;;;;;1.57;1.00;;;11.10;99.90;;;;;;5052131;28;20227;-46
2023/03/15 08:15:14;;;;;;;0.57;0.57;;;10.90;99.90;;;;;;5052121;28;20201;-46
2023/03/15 08:17:42;;;;;;;2.77;1.00;;;10.90;99.90;;;;;;5051579;28;20261;-47
2023/03/15 08:20:13;;;;;;;0.90;0.90;;;10.80;99.90;;;;;;5052153;28;20352;-47
2023/03/15 08:22:43;;;;;;;0.90;0.87;;;11.00;99.90;;;;;;5049912;28;20227;-47
2023/03/15 08:25:11;;;;;;;0.63;0.43;;;11.10;99.90;;;;;;5051041;28;20204;-48
2023/03/15 08:27:39;;;;;;;3.07;0.73;;;11.10;99.90;;;;;;5043215;28;20200;-47
2023/03/15 08:30:07;;;;;;;3.30;0.80;;;11.60;99.90;;;;;;5052007;28;20253;-46
2023/03/15 08:32:35;;;;;;;2.70;1.10;;;11.80;99.90;;;;;;5049682;28;20618;-47
2023/03/15 08:35:02;;;;;;;1.67;1.17;;;12.10;99.90;;;;;;5051738;28;20190;-47
2023/03/15 08:37:29;;;;;;;2.10;0.50;;;12.30;99.90;;;;;;5043108;28;20206;-48
2023/03/15 08:39:59;;;;;;;1.30;0.73;;;12.60;99.90;;;;;;5051720;28;20215;-46
2023/03/15 08:42:27;;;;;;;1.43;0.67;;;12.80;99.90;;;;;;5051237;28;20210;-47
2023/03/15 08:44:58;;;;;;;1.67;0.57;;;12.30;99.90;;;;;;5052396;28;20200;-47
2023/03/15 08:47:25;;;;;;;4.47;0.90;;;12.70;99.90;;;;;;5051748;28;20583;-47
2023/03/15 08:49:53;;;;;;;0.60;0.60;;;12.80;99.90;;;;;;5051245;28;20254;-47
2023/03/15 08:52:21;;;;;;;2.13;0.83;;;13.20;99.90;;;;;;5047297;28;20247;-46
2023/03/15 08:54:48;;;;;;;0.57;0.57;;;13.60;99.90;;;;;;5054419;28;20193;-46
2023/03/15 08:57:15;;;;;;;0.50;0.50;;;13.60;99.90;;;;;;5055077;28;20244;-48
2023/03/15 08:59:42;;;;;;;0.60;0.60;;;13.70;99.90;;;;;;5055708;28;20213;-47
2023/03/15 09:02:11;;;;;;;0.50;0.50;;;14.00;99.90;;;;;;5055417;28;20207;-47
2023/03/15 09:04:38;;;;;;;2.40;0.67;;;14.10;99.90;;;;;;5053136;28;20729;-46
2023/03/15 09:07:07;;;;;;;2.00;0.83;;;14.40;99.70;;;;;;5054509;28;20196;-47
2023/03/15 09:09:34;;;;;;;2.10;1.23;;;14.10;99.90;;;;;;5055903;28;20204;-47
2023/03/15 09:12:00;;;;;;;0.93;0.50;;;14.20;99.90;;;;;;5055354;28;20198;-47
2023/03/15 09:14:28;;;;;;;2.63;0.77;;;14.50;99.90;;;;;;5056759;28;20214;-47
2023/03/15 09:16:55;;;;;;;0.83;0.80;;;14.30;99.40;;;;;;5055563;28;20200;-48
2023/03/15 09:19:22;;;;;;;1.20;0.77;;;14.40;99.90;;;;;;5066518;28;20217;-47
2023/03/15 09:21:49;;;;;;;1.70;0.50;;;14.90;99.80;;;;;;5059087;28;20217;-47
2023/03/15 09:24:17;;;;;;;0.57;0.57;;;14.30;99.10;;;;;;5055297;28;20576;-47
2023/03/15 09:26:44;;;;;;;0.37;0.30;;;14.50;99.90;;;;;;5053277;28;20201;-46
2023/03/15 09:29:12;;;;;;;0.50;0.50;;;14.30;98.70;;;;;;5052128;28;20252;-48
2023/03/15 09:31:39;;;;;;;1.00;0.50;;;14.20;96.90;;;;;;5048737;28;20247;-46
2023/03/15 09:34:06;;;;;;;0.47;0.30;;;13.80;97.90;;;;;;5049052;28;20223;-46
2023/03/15 09:36:32;;;;;;;0.97;0.40;;;13.80;96.90;;;;;;5063796;28;20204;-46
2023/03/15 09:39:00;;;;;;;1.13;0.50;;;14.00;96.00;;;;;;5054046;28;20193;-49
2023/03/15 09:41:42;;;;;;;0.40;0.40;;;13.60;95.80;;;;;;5053289;28;20232;-47
2023/03/15 09:44:34;;;;;;;1.30;0.50;;;14.10;97.00;;;;;;5053736;28;20213;-47
2023/03/15 09:47:12;;;;;;;2.00;0.40;;;14.00;94.50;;;;;;5053555;28;20200;-47
2023/03/15 09:49:45;;;;;;;2.00;0.60;;;14.60;96.50;;;;;;5045760;28;20216;-50
2023/03/15 09:52:24;;;;;;;0.50;0.50;;;15.50;95.00;;;;;;5054616;28;20212;-47
2023/03/15 09:54:57;;;;;;;0.50;0.50;;;15.70;97.20;;;;;;5054971;28;20263;-48
2023/03/15 09:57:35;;;;;;;0.93;0.40;;;15.00;95.40;;;;;;5050566;28;20571;-48
2023/03/15 10:00:05;;;;;;;0.87;0.40;;;14.60;95.00;;;;;;5049642;28;20224;-47
2023/03/15 10:02:33;;;;;;;1.67;0.77;;;12.90;93.80;;;;;;5051261;28;20440;-47
2023/03/15 10:05:05;;;;;;;0.70;0.50;;;11.60;97.40;;;;;;5054468;28;20204;-47
2023/03/15 10:07:32;;;;;;;0.30;0.30;;;12.40;98.30;;;;;;5054107;28;20778;-47
2023/03/15 10:10:00;;;;;;;5.50;0.70;;;12.50;97.80;;;;;;5053376;28;20244;-46
2023/03/15 10:12:30;;;;;;;0.30;0.30;;;12.20;97.00;;;;;;5053707;28;20199;-46
2023/03/15 10:15:16;;;;;;;0.60;0.40;;;12.80;98.10;;;;;;5044692;28;20204;-47
2023/03/15 10:17:53;;;;;;;1.47;0.47;;;13.50;99.10;;;;;;5053865;28;20723;-47
2023/03/15 10:20:25;;;;;;;0.30;0.30;;;14.30;98.40;;;;;;5055218;28;20252;-48
2023/03/15 10:22:59;;;;;;;0.77;0.40;;;14.80;95.90;;;;;;5053902;28;20232;-48
2023/03/15 10:25:28;;;;;;;0.30;0.30;;;14.90;95.00;;;;;;5053868;28;20207;-47
2023/03/15 10:28:00;;;;;;;0.53;0.47;;;15.10;96.80;;;;;;5053322;28;20564;-47
2023/03/15 10:30:28;;;;;;;1.90;0.30;;;14.90;94.30;;;;;;5052669;28;20197;-47
2023/03/15 10:32:59;;;;;;;1.70;0.50;;;15.10;95.70;;;;;;5053224;28;20218;-47
2023/03/15 10:35:26;;;;;;;1.40;0.40;;;15.40;94.10;;;;;;5051802;28;20272;-48
2023/03/15 10:37:56;;;;;;;0.37;0.37;;;15.70;96.00;;;;;;5056284;28;20637;-48
2023/03/15 10:40:43;;;;;;;0.30;0.30;;;15.80;94.70;;;;;;5052300;28;20222;-47
2023/03/15 10:43:18;;;;;;;1.03;0.30;;;15.60;93.50;;;;;;5048532;28;20226;-47
2023/03/15 10:45:47;;;;;;;0.30;0.30;;;14.80;93.20;;;;;;5053290;28;20196;-47
2023/03/15 10:48:14;;;;;;;1.37;0.20;;;14.70;92.50;;;;;;5046968;28;20587;-47
2023/03/15 10:50:41;;;;;;;0.50;0.30;;;14.80;91.30;;;;;;5048890;28;20266;-46
2023/03/15 10:53:10;;;;;;;1.83;0.30;;;15.10;92.40;;;;;;5052974;28;20775;-47
2023/03/15 10:55:43;;;;;;;0.63;0.20;;;14.90;95.60;;;;;;5053666;28;20202;-49
2023/03/15 10:58:26;;;;;;;0.30;0.30;;;14.60;94.70;;;;;;5047619;28;20199;-47
2023/03/15 11:00:59;;;;;;;3.20;0.20;;;14.40;95.80;;;;;;5046373;28;20221;-47
2023/03/15 11:03:27;;;;;;;0.20;0.20;;;14.30;94.20;;;;;;5046908;28;20222;-47
2023/03/15 11:05:56;;;;;;;1.00;1.00;;;13.70;95.10;;;;;;5051476;28;20208;-46
2023/03/15 11:08:26;;;;;;;0.53;0.30;;;13.30;97.60;;;;;;5052891;28;20223;-47
2023/03/15 11:10:57;;;;;;;0.20;0.20;;;12.90;96.20;;;;;;5043789;28;20261;-47
2023/03/15 11:13:27;;;;;;;0.10;0.10;;;12.70;95.00;;;;;;5051441;28;20299;-48
2023/03/15 11:16:02;;;;;;;1.07;0.40;;;12.40;96.60;;;;;;5052280;28;20251;-46
2023/03/15 11:18:33;;;;;;;0.47;0.20;;;12.40;96.90;;;;;;5053006;28;20203;-48
2023/03/15 11:21:03;;;;;;;1.37;0.20;;;12.60;96.80;;;;;;5052934;28;20224;-48
2023/03/15 11:23:36;;;;;;;0.10;0.10;;;12.80;97.20;;;;;;5051930;28;20232;-48
2023/03/15 11:26:03;;;;;;;1.00;0.20;;;12.80;97.60;;;;;;5051978;28;20258;-47
2023/03/15 11:28:35;;;;;;;0.10;0.10;;;12.50;94.50;;;;;;5043947;28;20204;-47
2023/03/15 11:31:03;;;;;;;0.10;0.10;;;12.50;94.90;;;;;;5044297;28;20196;-47
2023/03/15 11:33:40;;;;;;;0.10;0.10;;;12.50;95.90;;;;;;5049010;28;20225;-48
2023/03/15 11:36:12;;;;;;;0.10;0.10;;;12.20;96.70;;;;;;5045550;28;20203;-48
2023/03/15 11:38:43;;;;;;;0.13;0.13;;;12.20;96.80;;;;;;5032832;28;20252;-47
2023/03/15 11:41:20;;;;;;;0.10;0.10;;;12.20;94.80;;;;;;5061085;28;20600;-47
2023/03/15 11:43:57;;;;;;;0.30;0.13;;;12.20;95.90;;;;;;5043874;28;20234;-47
2023/03/15 11:46:31;;;;;;;0.30;0.13;;;12.40;96.90;;;;;;5052504;28;20203;-48
2023/03/15 11:49:03;;;;;;;0.10;0.10;;;12.10;94.00;;;;;;5052730;28;20205;-47
2023/03/15 11:51:34;;;;;;;0.33;0.20;;;11.50;94.70;;;;;;5052354;28;20198;-47
2023/03/15 11:54:11;;;;;;;0.10;0.10;;;11.60;96.80;;;;;;5052064;28;20232;-46
2023/03/15 11:57:04;;;;;;;0.30;0.20;;;11.60;96.70;;;;;;5052158;28;20213;-47
2023/03/15 11:59:34;;;;;;;0.10;0.10;;;11.70;96.20;;;;;;5038303;28;20196;-47
2023/03/15 12:02:29;;;;;;;0.10;0.10;;;11.80;94.10;;;;;;5032147;28;20308;-47
2023/03/15 12:04:57;;;;;;;0.20;0.13;;;11.90;91.20;;;;;;5032164;28;20209;-47
2023/03/15 12:07:30;;;;;;;0.20;0.17;;;11.80;92.20;;;;;;5032000;28;20642;-47
2023/03/15 12:10:18;;;;;;;0.07;0.07;;;11.70;92.20;;;;;;5041406;28;20326;-47
2023/03/15 12:12:56;;;;;;;0.30;0.10;;;11.60;94.10;;;;;;5051562;28;20714;-48
2023/03/15 12:15:46;;;;;;;0.20;0.20;;;12.00;96.90;;;;;;5052100;28;20206;-48
2023/03/15 12:18:38;;;;;;;0.30;0.30;;;12.00;96.40;;;;;;5051951;28;20204;-47
2023/03/15 12:21:15;;;;;;;0.10;0.10;;;12.00;94.50;;;;;;5051808;28;20220;-47
2023/03/15 12:23:47;;;;;;;0.93;0.17;;;12.10;93.20;;;;;;5041763;28;20343;-49
2023/03/15 12:26:24;;;;;;;0.10;0.10;;;12.10;93.60;;;;;;5051347;28;20689;-48
2023/03/15 12:29:02;;;;;;;0.20;0.20;;;12.00;94.30;;;;;;5048403;28;20801;-48
2023/03/15 12:31:49;;;;;;;1.33;0.13;;;11.20;92.70;;;;;;5045581;28;20638;-48
2023/03/15 12:34:25;;;;;;;0.43;0.23;;;11.00;95.10;;;;;;5047251;28;20584;-47
2023/03/15 12:36:58;;;;;;;0.40;0.30;;;10.60;92.70;;;;;;5051513;28;20251;-46
2023/03/15 12:39:39;;;;;;;1.27;0.17;;;10.50;93.40;;;;;;5050643;28;20722;-49
2023/03/15 12:42:06;;;;;;;1.17;0.40;;;10.40;95.00;;;;;;5051431;28;20220;-46
2023/03/15 12:44:41;;;;;;;0.10;0.10;;;10.30;92.90;;;;;;5051424;28;20231;-47
2023/03/15 12:47:11;;;;;;;0.10;0.10;;;10.20;92.40;;;;;;5051595;28;20742;-47
2023/03/15 12:49:41;;;;;;;0.40;0.30;;;10.00;91.40;;;;;;5051392;28;20224;-47
2023/03/15 12:52:28;;;;;;;0.30;0.10;;;9.80;93.50;;;;;;5051566;28;20265;-47
2023/03/15 12:55:01;;;;;;;0.40;0.30;;;10.00;93.20;;;;;;5054729;28;20287;-47
2023/03/15 12:57:30;;;;;;;0.13;0.10;;;10.20;94.70;;;;;;5052871;28;20624;-47
2023/03/15 13:00:00;;;;;;;0.30;0.30;;;10.20;94.10;;;;;;5051088;28;20203;-47
2023/03/15 13:02:32;;;;;;;0.10;0.10;;;10.20;93.50;;;;;;5048398;28;20743;-52
2023/03/15 13:05:03;;;;;;;0.07;0.07;;;10.30;93.30;;;;;;5040687;28;20277;-47